Time;durP1;ratioP1;P1;durP2;ratioP2;P2;SDS_P1;SDS_P2;PMS_P1;PMS_P2;Temp;Humidity;BMP_temperature;BMP_pressure;BME280_temperature;BME280_humidity;BME280_pressure;Samples;Min_cycle;Max_cycle;Signal;HPM_P1;HPM_P2
2021/03/27 00:00:14;;;;;;;10.82;6.72;;;11.60;99.90;;;;;;5115855;28;20020;-67
2021/03/27 00:02:59;;;;;;;14.02;6.93;;;11.60;99.90;;;;;;5105067;28;20110;-67
2021/03/27 00:05:34;;;;;;;11.38;6.50;;;11.60;99.90;;;;;;5097974;28;20020;-68
2021/03/27 00:08:09;;;;;;;11.15;6.20;;;11.70;99.90;;;;;;5116258;28;20036;-66
2021/03/27 00:11:01;;;;;;;10.15;5.90;;;11.70;99.90;;;;;;5116196;28;20023;-67
2021/03/27 00:13:31;;;;;;;9.68;5.47;;;11.70;99.90;;;;;;5106753;28;20111;-66
2021/03/27 00:16:05;;;;;;;8.30;5.90;;;11.80;99.90;;;;;;5115869;28;20028;-67
2021/03/27 00:18:51;;;;;;;9.23;6.05;;;11.80;99.90;;;;;;5115879;28;20399;-69
2021/03/27 00:21:35;;;;;;;9.15;5.72;;;11.90;99.90;;;;;;5117714;28;20081;-68
2021/03/27 00:24:15;;;;;;;9.05;5.50;;;11.90;99.90;;;;;;5118588;28;20020;-67
2021/03/27 00:26:54;;;;;;;10.32;6.13;;;12.00;99.90;;;;;;5097235;28;20031;-67
2021/03/27 00:29:30;;;;;;;8.38;5.70;;;12.00;99.90;;;;;;5115813;28;20418;-67
2021/03/27 00:32:17;;;;;;;7.40;5.40;;;12.00;99.90;;;;;;5115531;28;20043;-67
2021/03/27 00:34:52;;;;;;;7.57;4.45;;;12.10;99.90;;;;;;5115520;28;20036;-67
2021/03/27 00:37:23;;;;;;;6.22;4.03;;;12.20;99.90;;;;;;5115638;28;20092;-66
2021/03/27 00:39:53;;;;;;;8.23;4.32;;;12.20;99.90;;;;;;5115618;28;20019;-66
2021/03/27 00:42:50;;;;;;;17.95;11.18;;;12.30;99.90;;;;;;5116310;28;20541;-67
2021/03/27 00:45:21;;;;;;;5.97;3.83;;;12.30;99.90;;;;;;5114182;28;20020;-66
2021/03/27 00:48:09;;;;;;;6.97;3.70;;;12.40;99.90;;;;;;5114931;28;20082;-68
2021/03/27 00:50:46;;;;;;;5.00;3.55;;;12.50;99.90;;;;;;5115213;28;20023;-66
2021/03/27 00:53:25;;;;;;;6.97;3.33;;;12.60;99.90;;;;;;5096803;28;20057;-66
2021/03/27 00:55:58;;;;;;;5.32;3.30;;;12.60;99.90;;;;;;5115073;28;20015;-66
2021/03/27 00:58:40;;;;;;;4.68;3.00;;;12.70;99.90;;;;;;5115361;28;20019;-65
2021/03/27 01:01:09;;;;;;;4.22;2.58;;;12.70;99.90;;;;;;5096467;28;20034;-65
2021/03/27 01:03:50;;;;;;;4.95;3.13;;;12.80;99.90;;;;;;5114818;28;20055;-68
2021/03/27 01:06:27;;;;;;;5.85;2.70;;;12.80;99.90;;;;;;5114595;28;20027;-66
2021/03/27 01:08:55;;;;;;;4.22;2.70;;;12.90;99.90;;;;;;5114587;28;20069;-66
2021/03/27 01:11:27;;;;;;;3.85;3.03;;;12.90;99.90;;;;;;5114671;28;20063;-66
2021/03/27 01:13:56;;;;;;;6.93;3.25;;;13.00;99.90;;;;;;5114415;28;20034;-65
2021/03/27 01:16:35;;;;;;;5.32;2.50;;;12.90;99.90;;;;;;5114263;28;20027;-66
2021/03/27 01:19:12;;;;;;;5.63;2.85;;;12.90;99.90;;;;;;5114420;28;20444;-67
2021/03/27 01:21:40;;;;;;;8.07;2.55;;;12.90;99.90;;;;;;5114205;28;20027;-66
2021/03/27 01:24:11;;;;;;;5.25;3.10;;;12.80;99.90;;;;;;5114178;28;20030;-67
2021/03/27 01:26:46;;;;;;;4.97;2.63;;;12.80;99.90;;;;;;5114347;28;20072;-65
2021/03/27 01:29:25;;;;;;;2.80;2.28;;;12.80;99.90;;;;;;5114331;28;20027;-66
2021/03/27 01:32:02;;;;;;;2.72;2.10;;;12.80;99.90;;;;;;5115085;28;20020;-66
2021/03/27 01:34:36;;;;;;;3.35;2.20;;;12.80;99.90;;;;;;5095908;28;20072;-68
2021/03/27 01:37:09;;;;;;;6.25;2.45;;;12.70;99.90;;;;;;5114226;28;20035;-65
2021/03/27 01:40:07;;;;;;;4.78;2.60;;;12.70;99.90;;;;;;5095637;28;20023;-66
2021/03/27 01:42:42;;;;;;;8.85;2.42;;;12.70;99.90;;;;;;5095818;28;20020;-66
2021/03/27 01:45:46;;;;;;;5.22;2.50;;;12.60;99.90;;;;;;5113801;28;20417;-66
2021/03/27 01:48:21;;;;;;;2.97;2.28;;;12.50;99.90;;;;;;5113997;28;20153;-65
2021/03/27 01:50:52;;;;;;;3.92;2.50;;;12.50;99.90;;;;;;5113806;28;20107;-65
2021/03/27 01:53:18;;;;;;;3.97;2.50;;;12.50;99.90;;;;;;5095277;28;20134;-66
2021/03/27 01:55:46;;;;;;;6.30;2.53;;;12.40;99.90;;;;;;5114148;28;20023;-66
2021/03/27 01:58:24;;;;;;;4.68;2.75;;;12.40;99.90;;;;;;5114376;28;20063;-67
2021/03/27 02:00:56;;;;;;;4.20;2.50;;;12.30;99.90;;;;;;5114399;28;20027;-66
2021/03/27 02:03:44;;;;;;;6.25;2.50;;;12.30;99.90;;;;;;5095272;28;20047;-66
2021/03/27 02:06:16;;;;;;;6.43;3.28;;;12.30;99.90;;;;;;5113220;28;20023;-65
2021/03/27 02:08:45;;;;;;;3.13;2.60;;;12.20;99.90;;;;;;5095186;28;20138;-66
2021/03/27 02:11:29;;;;;;;3.85;2.90;;;12.20;99.90;;;;;;5113229;28;20023;-65
2021/03/27 02:14:09;;;;;;;4.32;2.60;;;12.20;99.90;;;;;;5113303;28;20046;-66
2021/03/27 02:16:42;;;;;;;3.22;2.55;;;12.10;99.90;;;;;;5113234;28;20107;-66
2021/03/27 02:19:40;;;;;;;4.35;2.90;;;12.10;99.90;;;;;;5113523;28;20024;-67
2021/03/27 02:22:29;;;;;;;4.65;2.90;;;12.10;99.90;;;;;;5113739;28;20102;-65
2021/03/27 02:25:06;;;;;;;5.38;2.70;;;12.00;99.90;;;;;;5113518;28;20131;-66
2021/03/27 02:28:04;;;;;;;5.30;3.25;;;12.00;99.90;;;;;;5113328;28;20023;-66
2021/03/27 02:30:30;;;;;;;4.03;2.95;;;12.00;99.90;;;;;;5068223;28;20058;-66
2021/03/27 02:33:08;;;;;;;3.50;2.50;;;12.00;99.90;;;;;;5113432;28;20020;-66
2021/03/27 02:36:09;;;;;;;10.85;3.60;;;12.00;99.90;;;;;;5113920;28;20361;-67
2021/03/27 02:38:45;;;;;;;5.57;4.15;;;11.90;99.90;;;;;;5098977;28;20039;-66
2021/03/27 02:41:32;;;;;;;5.82;3.97;;;11.70;99.90;;;;;;5113316;28;20024;-66
2021/03/27 02:44:05;;;;;;;7.10;4.32;;;11.40;99.90;;;;;;5113104;28;20049;-65
2021/03/27 02:46:48;;;;;;;6.40;4.07;;;11.10;99.90;;;;;;5094915;28;20422;-65
2021/03/27 02:49:31;;;;;;;8.48;3.92;;;10.90;99.90;;;;;;5113424;28;20514;-65
2021/03/27 02:52:21;;;;;;;7.97;4.45;;;10.80;99.90;;;;;;5113543;28;20028;-65
2021/03/27 02:55:35;;;;;;;4.70;3.40;;;10.70;99.90;;;;;;5113707;28;20425;-66
2021/03/27 02:58:08;;;;;;;6.68;3.25;;;10.60;99.90;;;;;;5105418;28;20430;-66
2021/03/27 03:00:56;;;;;;;6.72;3.08;;;10.50;99.90;;;;;;5113217;28;20055;-66
2021/03/27 03:03:35;;;;;;;5.22;3.22;;;10.40;99.90;;;;;;5113197;28;20162;-66
2021/03/27 03:06:19;;;;;;;6.32;2.90;;;10.40;99.90;;;;;;5113011;28;20097;-66
2021/03/27 03:09:33;;;;;;;6.43;2.80;;;10.40;99.90;;;;;;5113562;28;20072;-66
2021/03/27 03:12:17;;;;;;;2.90;2.10;;;10.30;99.90;;;;;;5109778;28;20471;-65
2021/03/27 03:15:17;;;;;;;2.83;1.80;;;10.30;99.90;;;;;;5116751;28;20472;-66
2021/03/27 03:18:01;;;;;;;4.22;1.88;;;10.20;99.90;;;;;;5046638;28;20040;-66
2021/03/27 03:21:00;;;;;;;1.75;1.02;;;10.10;99.90;;;;;;5116480;28;20034;-66
2021/03/27 03:23:49;;;;;;;2.05;1.50;;;10.10;99.90;;;;;;5116241;28;20023;-66
2021/03/27 03:26:48;;;;;;;3.17;1.63;;;10.10;99.90;;;;;;5116216;28;20570;-66
2021/03/27 03:29:33;;;;;;;3.17;1.52;;;10.10;99.90;;;;;;5116423;28;20027;-66
2021/03/27 03:32:31;;;;;;;1.55;0.90;;;9.90;99.90;;;;;;5119050;28;20015;-66
2021/03/27 03:35:07;;;;;;;1.35;0.60;;;9.70;99.90;;;;;;5088739;28;20036;-66
2021/03/27 03:37:56;;;;;;;1.45;0.77;;;9.70;99.90;;;;;;5119646;28;20049;-67
2021/03/27 03:41:05;;;;;;;0.90;0.70;;;9.60;99.90;;;;;;5099734;28;20384;-67
2021/03/27 03:43:50;;;;;;;1.50;0.75;;;9.40;99.90;;;;;;5098621;28;20088;-66
2021/03/27 03:46:34;;;;;;;1.25;0.70;;;9.30;99.90;;;;;;5116171;28;20032;-67
2021/03/27 03:49:25;;;;;;;2.67;1.27;;;9.20;99.90;;;;;;5115938;28;20024;-67
2021/03/27 03:52:08;;;;;;;1.73;1.00;;;9.20;99.90;;;;;;5116148;28;20023;-66
2021/03/27 03:55:02;;;;;;;2.08;1.00;;;9.00;99.90;;;;;;5115842;28;20028;-66
2021/03/27 03:57:31;;;;;;;2.33;0.95;;;9.00;99.90;;;;;;5097218;28;20023;-66
2021/03/27 04:00:04;;;;;;;2.05;1.15;;;8.90;99.90;;;;;;5097160;28;20020;-66
2021/03/27 04:02:40;;;;;;;1.38;0.93;;;8.80;99.90;;;;;;5097300;28;20537;-67
2021/03/27 04:05:24;;;;;;;1.48;0.73;;;8.70;99.90;;;;;;5115644;28;20488;-66
2021/03/27 04:08:05;;;;;;;2.35;0.90;;;8.60;99.90;;;;;;5115631;28;20079;-67
2021/03/27 04:10:33;;;;;;;1.38;1.00;;;8.60;99.90;;;;;;5115273;28;20463;-66
2021/03/27 04:13:09;;;;;;;1.42;0.90;;;8.50;99.90;;;;;;5115362;28;20036;-66
2021/03/27 04:15:38;;;;;;;1.90;1.02;;;8.40;99.90;;;;;;5115193;28;20104;-65
2021/03/27 04:18:41;;;;;;;2.78;1.00;;;8.40;99.90;;;;;;5115008;28;20019;-66
2021/03/27 04:21:20;;;;;;;1.88;0.85;;;8.40;99.90;;;;;;5115312;28;20524;-65
2021/03/27 04:23:55;;;;;;;1.25;0.95;;;8.30;99.90;;;;;;5115084;28;20038;-66
2021/03/27 04:26:27;;;;;;;1.60;1.00;;;8.30;99.90;;;;;;5115214;28;20057;-66
2021/03/27 04:29:15;;;;;;;2.28;1.13;;;8.30;99.90;;;;;;5115513;28;20050;-66
2021/03/27 04:32:03;;;;;;;2.25;1.00;;;8.30;99.90;;;;;;5096542;28;20035;-67
2021/03/27 04:34:35;;;;;;;1.52;0.98;;;8.30;99.90;;;;;;5114528;28;20046;-66
2021/03/27 04:37:06;;;;;;;1.42;0.93;;;8.20;99.90;;;;;;5114766;28;20020;-66
2021/03/27 04:39:50;;;;;;;1.10;0.90;;;8.20;99.90;;;;;;5114675;28;20043;-66
2021/03/27 04:42:24;;;;;;;1.08;0.85;;;8.10;99.90;;;;;;5096162;28;20024;-66
2021/03/27 04:45:13;;;;;;;1.00;0.90;;;8.00;99.90;;;;;;5114664;28;20024;-66
2021/03/27 04:47:46;;;;;;;2.70;1.00;;;8.00;99.90;;;;;;5114665;28;20027;-66
2021/03/27 04:50:22;;;;;;;1.60;1.20;;;8.00;99.90;;;;;;5114731;28;20031;-66
2021/03/27 04:53:18;;;;;;;2.08;0.93;;;8.00;99.90;;;;;;5114465;28;20024;-66
2021/03/27 04:55:50;;;;;;;1.75;0.80;;;7.90;99.90;;;;;;5114579;28;20140;-65
2021/03/27 04:58:43;;;;;;;0.70;0.52;;;7.80;99.90;;;;;;5114305;28;20031;-66
2021/03/27 05:01:22;;;;;;;2.05;1.00;;;7.70;99.90;;;;;;5114272;28;20426;-66
2021/03/27 05:03:58;;;;;;;1.65;0.80;;;7.60;99.90;;;;;;5114463;28;20047;-67
2021/03/27 05:06:38;;;;;;;1.92;1.17;;;7.50;99.90;;;;;;5114098;28;20586;-66
2021/03/27 05:09:07;;;;;;;1.65;0.57;;;7.50;99.90;;;;;;5114693;28;20365;-67
2021/03/27 05:11:45;;;;;;;1.15;0.60;;;7.40;99.90;;;;;;5114608;28;20028;-66
2021/03/27 05:14:29;;;;;;;0.40;0.40;;;7.40;99.90;;;;;;5114573;28;20015;-67
2021/03/27 05:17:25;;;;;;;2.03;0.50;;;7.40;99.90;;;;;;5114065;28;20031;-67
2021/03/27 05:20:13;;;;;;;0.88;0.73;;;7.40;99.90;;;;;;5114539;28;20052;-66
2021/03/27 05:22:51;;;;;;;1.15;0.60;;;7.30;99.90;;;;;;5114393;28;20016;-66
2021/03/27 05:25:31;;;;;;;1.13;0.88;;;7.30;99.90;;;;;;5115315;28;20019;-66
2021/03/27 05:27:59;;;;;;;6.68;0.80;;;7.20;99.90;;;;;;5114120;28;20434;-66
2021/03/27 05:30:50;;;;;;;2.63;0.85;;;7.20;99.90;;;;;;5113819;28;20028;-66
2021/03/27 05:33:26;;;;;;;2.45;0.70;;;7.10;99.90;;;;;;5113593;28;20028;-66
2021/03/27 05:36:02;;;;;;;3.10;0.90;;;7.10;99.90;;;;;;5113984;28;20024;-66
2021/03/27 05:38:50;;;;;;;4.78;0.98;;;7.10;99.90;;;;;;5114240;28;20467;-66
2021/03/27 05:41:19;;;;;;;2.03;1.05;;;7.10;99.90;;;;;;5114217;28;20027;-66
2021/03/27 05:43:50;;;;;;;2.20;0.80;;;7.10;99.90;;;;;;5114167;28;20460;-66
2021/03/27 05:46:41;;;;;;;2.42;0.73;;;7.10;99.90;;;;;;5113901;28;20062;-66
2021/03/27 05:49:41;;;;;;;3.70;1.02;;;7.20;99.90;;;;;;5114373;28;20012;-66
2021/03/27 05:52:27;;;;;;;4.22;0.90;;;7.20;99.90;;;;;;5114084;28;20547;-66
2021/03/27 05:55:18;;;;;;;3.90;1.00;;;7.30;99.90;;;;;;5114029;28;20031;-66
2021/03/27 05:58:18;;;;;;;3.00;1.25;;;7.30;99.90;;;;;;5113781;28;20031;-65
2021/03/27 06:00:49;;;;;;;3.95;1.10;;;7.30;99.90;;;;;;5095519;28;20363;-66
2021/03/27 06:03:39;;;;;;;2.58;0.80;;;7.40;99.90;;;;;;5114150;28;20077;-66
2021/03/27 06:06:36;;;;;;;3.58;0.80;;;7.40;99.90;;;;;;5113091;28;20036;-66
2021/03/27 06:09:23;;;;;;;3.20;0.80;;;7.40;99.90;;;;;;5116473;28;20172;-63
2021/03/27 06:11:58;;;;;;;4.13;1.30;;;7.40;99.90;;;;;;5095104;28;20020;-65
2021/03/27 06:14:56;;;;;;;3.00;1.00;;;7.50;99.90;;;;;;5094845;28;20026;-65
2021/03/27 06:17:28;;;;;;;2.97;1.08;;;7.50;99.90;;;;;;5078256;28;20126;-65
2021/03/27 06:20:12;;;;;;;4.25;1.08;;;7.50;99.90;;;;;;5113657;28;20047;-65
2021/03/27 06:23:11;;;;;;;2.90;0.90;;;7.60;99.90;;;;;;5113286;28;20114;-64
2021/03/27 06:26:16;;;;;;;3.92;1.52;;;7.70;99.90;;;;;;5115749;28;20022;-64
2021/03/27 06:29:07;;;;;;;4.55;1.08;;;7.80;99.90;;;;;;5113475;28;20015;-65
2021/03/27 06:31:48;;;;;;;5.50;1.17;;;7.80;99.90;;;;;;5113290;28;20499;-64
2021/03/27 06:34:45;;;;;;;3.42;1.30;;;7.80;99.90;;;;;;5113877;28;20027;-65
2021/03/27 06:37:41;;;;;;;4.40;0.88;;;7.80;99.90;;;;;;5114855;28;20162;-66
2021/03/27 06:40:40;;;;;;;1.80;0.70;;;7.80;99.90;;;;;;5114772;28;20027;-65
2021/03/27 06:43:35;;;;;;;6.18;1.20;;;7.80;99.90;;;;;;5096411;28;20031;-65
2021/03/27 06:46:35;;;;;;;6.10;1.13;;;7.80;99.90;;;;;;5103439;28;20107;-65
2021/03/27 06:49:06;;;;;;;3.28;1.13;;;7.90;99.90;;;;;;5119278;28;20510;-63
2021/03/27 06:52:03;;;;;;;4.28;1.52;;;8.00;99.90;;;;;;5117644;28;20030;-64
2021/03/27 06:55:06;;;;;;;5.47;1.10;;;8.10;99.90;;;;;;5117813;28;20026;-65
2021/03/27 06:57:46;;;;;;;9.18;1.33;;;8.30;99.90;;;;;;5118354;28;20031;-65
2021/03/27 07:00:27;;;;;;;3.83;1.42;;;8.30;99.90;;;;;;5118363;28;20012;-64
2021/03/27 07:03:30;;;;;;;3.35;1.30;;;8.30;99.90;;;;;;5119113;28;20110;-64
2021/03/27 07:06:18;;;;;;;3.65;1.38;;;8.40;99.90;;;;;;5117719;28;20036;-65
2021/03/27 07:08:52;;;;;;;4.93;1.38;;;8.40;99.90;;;;;;5116870;28;20055;-66
2021/03/27 07:11:30;;;;;;;8.55;1.52;;;8.60;99.90;;;;;;5117741;28;20051;-64
2021/03/27 07:14:14;;;;;;;3.97;1.40;;;8.60;99.90;;;;;;5117633;28;20058;-64
2021/03/27 07:17:09;;;;;;;2.40;1.00;;;8.60;99.90;;;;;;5117890;28;20031;-67
2021/03/27 07:20:05;;;;;;;6.20;1.25;;;8.60;99.90;;;;;;5116970;28;20027;-67
2021/03/27 07:22:52;;;;;;;3.55;1.00;;;8.60;99.90;;;;;;5117033;28;20051;-65
2021/03/27 07:25:39;;;;;;;4.05;1.13;;;8.70;99.90;;;;;;5117500;28;20456;-66
2021/03/27 07:28:20;;;;;;;3.53;1.08;;;8.70;99.90;;;;;;5116775;28;20114;-67
2021/03/27 07:30:57;;;;;;;7.85;0.93;;;8.80;99.90;;;;;;5116698;28;20123;-66
2021/03/27 07:33:29;;;;;;;5.95;0.90;;;8.80;99.90;;;;;;5116402;28;20028;-66
2021/03/27 07:36:20;;;;;;;4.28;1.23;;;8.80;99.90;;;;;;5117293;28;20024;-67
2021/03/27 07:39:14;;;;;;;4.70;1.10;;;8.80;99.90;;;;;;5098168;28;20115;-66
2021/03/27 07:41:53;;;;;;;4.35;1.00;;;8.90;99.90;;;;;;5116050;28;20016;-67
2021/03/27 07:44:49;;;;;;;2.95;0.80;;;8.90;99.90;;;;;;5116141;28;20103;-66
2021/03/27 07:47:34;;;;;;;3.72;0.82;;;8.90;99.90;;;;;;5115921;28;20114;-66
2021/03/27 07:50:24;;;;;;;7.05;1.23;;;9.00;99.90;;;;;;5115715;28;20024;-66
2021/03/27 07:52:56;;;;;;;4.20;1.02;;;9.00;99.90;;;;;;5116063;28;20068;-66
2021/03/27 07:55:49;;;;;;;6.45;0.98;;;9.00;99.90;;;;;;5115292;28;20019;-66
2021/03/27 07:58:20;;;;;;;3.13;0.95;;;9.10;99.90;;;;;;5115632;28;20030;-66
2021/03/27 08:01:02;;;;;;;4.20;0.90;;;9.10;99.90;;;;;;5116080;28;20068;-66
2021/03/27 08:03:57;;;;;;;4.68;0.90;;;9.10;99.20;;;;;;5116074;28;20020;-66
2021/03/27 08:06:32;;;;;;;8.05;1.20;;;9.00;99.60;;;;;;5116034;28;20058;-68
2021/03/27 08:09:26;;;;;;;7.65;1.00;;;9.20;98.90;;;;;;5116193;28;20028;-71
2021/03/27 08:12:23;;;;;;;6.80;1.10;;;9.30;97.90;;;;;;5116110;28;20020;-67
2021/03/27 08:15:23;;;;;;;5.28;1.02;;;9.40;97.60;;;;;;5115838;28;20020;-69
2021/03/27 08:17:51;;;;;;;4.25;1.00;;;9.40;97.30;;;;;;5115043;28;20027;-69
2021/03/27 08:20:40;;;;;;;3.45;0.90;;;9.50;97.30;;;;;;5115551;28;20024;-67
2021/03/27 08:23:37;;;;;;;2.97;0.90;;;9.50;96.80;;;;;;5097403;28;20164;-69
2021/03/27 08:26:24;;;;;;;4.72;0.93;;;9.50;97.60;;;;;;5115539;28;20015;-68
2021/03/27 08:29:04;;;;;;;6.75;1.00;;;9.50;96.60;;;;;;5115510;28;20056;-68
2021/03/27 08:31:43;;;;;;;4.97;0.95;;;9.70;96.40;;;;;;5097074;28;20019;-68
2021/03/27 08:34:33;;;;;;;3.13;1.00;;;9.80;96.00;;;;;;5115698;28;20377;-69
2021/03/27 08:37:20;;;;;;;6.80;1.20;;;9.90;96.10;;;;;;5115268;28;20085;-69
2021/03/27 08:39:54;;;;;;;3.17;1.37;;;10.00;96.10;;;;;;5097130;28;20452;-69
2021/03/27 08:42:26;;;;;;;5.15;1.25;;;10.10;96.40;;;;;;5115467;28;20015;-68
2021/03/27 08:45:04;;;;;;;5.07;1.10;;;10.10;96.00;;;;;;5115324;28;20081;-67
2021/03/27 08:48:12;;;;;;;3.30;1.08;;;10.20;94.50;;;;;;5096586;28;20095;-68
2021/03/27 08:51:02;;;;;;;6.50;1.13;;;10.20;94.20;;;;;;5114965;28;20098;-69
2021/03/27 08:54:07;;;;;;;7.50;1.20;;;10.50;93.60;;;;;;5115514;28;20042;-69
2021/03/27 08:57:06;;;;;;;3.65;1.00;;;10.80;91.70;;;;;;5097116;28;20023;-68
2021/03/27 09:00:08;;;;;;;2.83;0.90;;;11.80;90.10;;;;;;5115254;28;20027;-68
2021/03/27 09:02:40;;;;;;;4.70;1.45;;;12.90;82.40;;;;;;5114548;28;20102;-69
2021/03/27 09:05:27;;;;;;;4.18;1.48;;;14.40;72.00;;;;;;5096158;28;20024;-69
2021/03/27 09:08:17;;;;;;;5.85;2.08;;;15.60;64.00;;;;;;5113637;28;20043;-69
2021/03/27 09:11:02;;;;;;;5.32;1.58;;;15.10;61.60;;;;;;5114756;28;20468;-69
2021/03/27 09:13:33;;;;;;;5.43;1.70;;;14.50;64.30;;;;;;5114857;28;20032;-67
2021/03/27 09:16:31;;;;;;;7.10;1.10;;;13.90;65.80;;;;;;5114700;28;20448;-64
2021/03/27 09:19:16;;;;;;;3.92;1.00;;;13.10;68.30;;;;;;5113938;28;20035;-64
2021/03/27 09:22:02;;;;;;;3.40;0.93;;;12.40;71.30;;;;;;5114225;28;20019;-64
2021/03/27 09:24:34;;;;;;;6.80;1.05;;;12.50;71.50;;;;;;5114042;28;20111;-66
2021/03/27 09:27:24;;;;;;;4.20;1.23;;;12.50;72.90;;;;;;5113880;28;20038;-67
2021/03/27 09:30:07;;;;;;;7.63;1.80;;;12.40;73.30;;;;;;5114110;28;20020;-67
2021/03/27 09:32:48;;;;;;;3.50;0.98;;;12.00;74.30;;;;;;5095308;28;20020;-68
2021/03/27 09:35:46;;;;;;;4.10;0.82;;;12.00;74.40;;;;;;5113474;28;20031;-67
2021/03/27 09:38:12;;;;;;;;;;;12.00;74.50;;;;;;5114335;28;20023;-67
2021/03/27 09:41:15;;;;;;;4.47;1.08;;;12.00;74.40;;;;;;5096262;28;19911;-67
2021/03/27 09:44:05;;;;;;;3.55;0.88;;;11.90;74.70;;;;;;5113949;28;20065;-68
2021/03/27 09:47:08;;;;;;;4.68;1.08;;;11.80;74.30;;;;;;5113603;28;20345;-67
2021/03/27 09:50:15;;;;;;;4.57;1.40;;;11.70;73.40;;;;;;5113740;28;20020;-68
2021/03/27 09:52:58;;;;;;;4.38;1.40;;;11.70;72.70;;;;;;5074608;28;20036;-68
2021/03/27 09:55:39;;;;;;;5.22;1.42;;;11.60;70.90;;;;;;5115053;28;20031;-67
2021/03/27 09:58:14;;;;;;;2.78;0.90;;;11.80;66.60;;;;;;5113784;28;20024;-67
2021/03/27 10:01:15;;;;;;;4.95;1.00;;;12.90;65.10;;;;;;5095223;28;20024;-68
2021/03/27 10:03:52;;;;;;;3.35;0.82;;;13.70;63.20;;;;;;5092076;28;20538;-67
2021/03/27 10:06:24;;;;;;;6.18;1.17;;;13.80;59.90;;;;;;5094845;28;20039;-67
2021/03/27 10:09:22;;;;;;;3.42;1.20;;;13.60;59.40;;;;;;5094473;28;20114;-68
2021/03/27 10:11:57;;;;;;;3.95;1.15;;;13.20;60.50;;;;;;5069599;28;20031;-67
2021/03/27 10:14:28;;;;;;;6.68;1.95;;;12.50;62.20;;;;;;5112586;28;20384;-68
2021/03/27 10:17:20;;;;;;;4.82;1.20;;;12.00;64.30;;;;;;5113484;28;20466;-68
2021/03/27 10:20:10;;;;;;;4.80;1.17;;;11.80;66.10;;;;;;5113605;28;20536;-67
2021/03/27 10:23:04;;;;;;;2.72;0.88;;;11.60;68.10;;;;;;5094610;28;20111;-67
2021/03/27 10:26:20;;;;;;;3.65;1.08;;;12.30;67.10;;;;;;5113277;28;20030;-67
2021/03/27 10:29:07;;;;;;;4.70;1.00;;;11.90;66.90;;;;;;5078314;28;20043;-68
2021/03/27 10:31:40;;;;;;;5.32;1.17;;;11.60;67.20;;;;;;5113010;28;20417;-68
2021/03/27 10:34:39;;;;;;;3.17;1.15;;;11.40;68.00;;;;;;5113522;28;20046;-67
2021/03/27 10:37:16;;;;;;;3.22;1.00;;;11.40;69.20;;;;;;5068090;28;20476;-67
2021/03/27 10:40:26;;;;;;;4.95;1.02;;;11.30;69.20;;;;;;5094180;28;20087;-67
2021/03/27 10:43:19;;;;;;;6.55;1.42;;;11.10;68.50;;;;;;5030399;28;20665;-67
2021/03/27 10:46:23;;;;;;;3.30;0.80;;;10.90;68.20;;;;;;5094860;28;20368;-68
2021/03/27 10:49:05;;;;;;;4.82;0.93;;;10.80;69.00;;;;;;5112012;28;20028;-68
2021/03/27 10:51:42;;;;;;;4.00;1.10;;;10.80;69.90;;;;;;5094216;28;20539;-66
2021/03/27 10:54:25;;;;;;;7.40;3.50;;;12.00;68.20;;;;;;5113249;28;20103;-67
2021/03/27 10:57:19;;;;;;;8.52;2.72;;;13.90;63.00;;;;;;5094803;28;20038;-68
2021/03/27 10:59:59;;;;;;;6.47;1.38;;;15.30;58.10;;;;;;5094873;28;20027;-69
2021/03/27 11:02:49;;;;;;;3.65;1.20;;;16.50;53.10;;;;;;5113199;28;20484;-68
2021/03/27 11:05:33;;;;;;;4.53;1.02;;;18.10;49.80;;;;;;5113577;28;20024;-67
2021/03/27 11:08:23;;;;;;;4.38;1.83;;;19.30;46.00;;;;;;5114039;28;20396;-67
2021/03/27 11:11:03;;;;;;;5.20;1.15;;;17.90;46.50;;;;;;5097032;28;20119;-68
2021/03/27 11:13:53;;;;;;;6.57;1.40;;;16.60;47.90;;;;;;5113710;28;20027;-67
2021/03/27 11:16:44;;;;;;;4.55;1.35;;;15.90;49.70;;;;;;5113485;28;20056;-67
2021/03/27 11:19:44;;;;;;;5.85;1.30;;;14.70;52.10;;;;;;5113326;28;20088;-67
2021/03/27 11:22:41;;;;;;;5.57;1.30;;;13.90;53.00;;;;;;5108529;28;20027;-67
2021/03/27 11:25:39;;;;;;;6.45;1.27;;;13.60;54.20;;;;;;5094698;28;20035;-67
2021/03/27 11:28:15;;;;;;;4.88;0.90;;;13.20;55.10;;;;;;5101306;28;20126;-66
2021/03/27 11:31:09;;;;;;;3.97;1.20;;;12.90;56.20;;;;;;5114485;28;20518;-67
2021/03/27 11:33:41;;;;;;;5.10;1.00;;;12.80;56.60;;;;;;5095949;28;20054;-67
2021/03/27 11:36:22;;;;;;;5.28;1.00;;;12.60;57.00;;;;;;5097778;28;20425;-68
2021/03/27 11:39:03;;;;;;;3.78;1.00;;;12.60;58.10;;;;;;5115970;28;20024;-66
2021/03/27 11:41:35;;;;;;;4.32;1.27;;;12.70;57.40;;;;;;5116163;28;20026;-67
2021/03/27 11:44:39;;;;;;;6.63;2.05;;;12.50;57.10;;;;;;5116016;28;20480;-66
2021/03/27 11:47:23;;;;;;;3.63;1.27;;;12.40;57.70;;;;;;5115294;28;20047;-68
2021/03/27 11:49:58;;;;;;;2.50;0.85;;;12.30;57.80;;;;;;5115888;28;20073;-67
2021/03/27 11:53:00;;;;;;;4.63;1.40;;;12.20;59.10;;;;;;5116178;28;20024;-67
2021/03/27 11:55:31;;;;;;;3.17;0.90;;;12.30;59.30;;;;;;5070721;28;20131;-67
2021/03/27 11:58:25;;;;;;;7.70;1.45;;;12.50;58.10;;;;;;5115903;28;20028;-65
2021/03/27 12:01:02;;;;;;;5.05;0.90;;;12.60;58.00;;;;;;5097291;28;20020;-66
2021/03/27 12:03:46;;;;;;;4.53;0.82;;;12.70;57.90;;;;;;5115860;28;20019;-65
2021/03/27 12:06:21;;;;;;;4.65;1.30;;;12.80;57.40;;;;;;5115795;28;20468;-67
2021/03/27 12:08:55;;;;;;;6.32;1.02;;;12.70;57.70;;;;;;5115827;28;20127;-64
2021/03/27 12:11:52;;;;;;;5.47;1.30;;;12.80;58.20;;;;;;5115966;28;20020;-66
2021/03/27 12:14:30;;;;;;;5.20;1.35;;;12.90;57.90;;;;;;5115531;28;20116;-66
2021/03/27 12:17:24;;;;;;;4.13;0.88;;;12.80;57.60;;;;;;5115625;28;20486;-67
2021/03/27 12:20:05;;;;;;;4.95;1.33;;;12.70;58.10;;;;;;5115670;28;20106;-66
2021/03/27 12:23:12;;;;;;;3.88;1.20;;;12.70;59.40;;;;;;5115733;28;20083;-67
2021/03/27 12:25:48;;;;;;;5.07;0.90;;;12.70;58.60;;;;;;5032558;28;20032;-66
2021/03/27 12:28:38;;;;;;;11.48;2.17;;;12.60;58.90;;;;;;5032919;28;20100;-65
2021/03/27 12:31:30;;;;;;;5.53;1.88;;;12.50;59.60;;;;;;5092256;28;20043;-65
2021/03/27 12:34:29;;;;;;;5.20;1.20;;;12.40;61.20;;;;;;5115678;28;20380;-65
2021/03/27 12:37:11;;;;;;;4.53;1.25;;;12.40;61.40;;;;;;5097146;28;20047;-67
2021/03/27 12:39:56;;;;;;;2.92;1.02;;;12.40;61.60;;;;;;5115253;28;20026;-67
2021/03/27 12:42:33;;;;;;;5.50;1.00;;;12.40;61.60;;;;;;5114919;28;20019;-67
2021/03/27 12:45:26;;;;;;;3.95;1.33;;;12.40;61.70;;;;;;5096961;28;20050;-66
2021/03/27 12:48:19;;;;;;;6.30;1.70;;;12.20;61.60;;;;;;5110843;28;20069;-67
2021/03/27 12:51:07;;;;;;;5.40;0.98;;;12.20;61.70;;;;;;5115288;28;20360;-66
2021/03/27 12:53:56;;;;;;;5.03;1.13;;;12.10;62.10;;;;;;5114762;28;20024;-67
2021/03/27 12:56:36;;;;;;;4.15;1.00;;;12.00;62.40;;;;;;5114976;28;20414;-68
2021/03/27 12:59:27;;;;;;;5.32;1.05;;;12.10;62.90;;;;;;5115051;28;20090;-68
2021/03/27 13:02:30;;;;;;;5.97;1.20;;;12.20;63.30;;;;;;5105359;28;20361;-68
2021/03/27 13:05:15;;;;;;;6.70;1.60;;;12.40;63.20;;;;;;5114431;28;20031;-68
2021/03/27 13:08:12;;;;;;;7.97;1.58;;;12.60;62.50;;;;;;5095958;28;20055;-67
2021/03/27 13:10:54;;;;;;;4.40;1.05;;;12.70;62.30;;;;;;5114567;28;20027;-67
2021/03/27 13:13:29;;;;;;;5.55;1.10;;;12.70;61.90;;;;;;5114505;28;20476;-68
2021/03/27 13:16:06;;;;;;;5.40;1.30;;;12.50;61.90;;;;;;5114706;28;20023;-67
2021/03/27 13:18:34;;;;;;;6.47;1.23;;;12.40;63.20;;;;;;5114358;28;20027;-68
2021/03/27 13:21:15;;;;;;;6.03;1.40;;;12.20;63.30;;;;;;5114289;28;20024;-68
2021/03/27 13:24:09;;;;;;;5.70;1.65;;;12.00;65.50;;;;;;5116107;28;20107;-68
2021/03/27 13:26:35;;;;;;;8.70;1.75;;;11.80;66.30;;;;;;5114693;28;20026;-67
2021/03/27 13:29:51;;;;;;;7.18;1.67;;;11.70;69.00;;;;;;5114867;28;20024;-68
2021/03/27 13:32:16;;;;;;;5.00;1.10;;;11.80;68.90;;;;;;5112398;28;20115;-68
2021/03/27 13:35:14;;;;;;;5.28;1.00;;;12.00;68.40;;;;;;5096003;28;20031;-68
2021/03/27 13:38:01;;;;;;;6.15;1.25;;;12.20;66.90;;;;;;5113885;28;20028;-68
2021/03/27 13:40:33;;;;;;;7.47;1.15;;;12.40;66.20;;;;;;5114420;28;20441;-68
2021/03/27 13:43:39;;;;;;;7.25;1.30;;;12.40;64.80;;;;;;5114322;28;20027;-68
2021/03/27 13:46:16;;;;;;;5.10;1.33;;;12.20;64.20;;;;;;5114300;28;20414;-68
2021/03/27 13:49:07;;;;;;;9.00;1.70;;;12.20;63.30;;;;;;5113962;28;20077;-67
2021/03/27 13:51:42;;;;;;;5.43;1.83;;;12.50;63.00;;;;;;5096041;28;20409;-73
2021/03/27 13:54:28;;;;;;;4.03;1.30;;;12.60;63.30;;;;;;5114039;28;20038;-67
2021/03/27 13:57:16;;;;;;;3.43;1.10;;;12.50;63.10;;;;;;5113576;28;20024;-68
2021/03/27 13:59:49;;;;;;;;;;;12.60;62.80;;;;;;5096012;28;20053;-68
2021/03/27 14:02:50;;;;;;;5.20;1.52;;;12.50;63.30;;;;;;5113549;28;20382;-68
2021/03/27 14:05:44;;;;;;;5.43;1.52;;;12.60;63.30;;;;;;5095411;28;20031;-68
2021/03/27 14:08:30;;;;;;;4.95;1.40;;;12.60;61.90;;;;;;5113531;28;20055;-69
2021/03/27 14:10:58;;;;;;;7.32;1.30;;;12.70;60.30;;;;;;5113536;28;20035;-69
2021/03/27 14:13:35;;;;;;;4.25;1.00;;;12.50;60.50;;;;;;5095347;28;20024;-66
2021/03/27 14:16:10;;;;;;;6.35;1.23;;;12.30;61.50;;;;;;5095302;28;20031;-66
2021/03/27 14:18:49;;;;;;;4.65;1.50;;;12.30;62.90;;;;;;5116009;28;20373;-66